Dayton, TX

9:25 AM CST on February 14, 2016 (GMT -0600)
Beautiful Downtown | | Change Station
CLOSE
Current Station
Personal Weather Station
Location: Dayton, TX
Elevation: 84 ft
Nearby Weather Stations

Elev 84 ft 30.05 °N, 94.89 °W | Updated 11 seconds ago

Overcast
Overcast
65.8 °F
Feels Like 65.8 °F
N
6.0
Wind Variable Wind from SSE
Gusts 8.0 mph

Today
High -- | Low -- °F
--% Chance of Precip.
Yesterday
High -- | Low -- °F
Precip. -- in
Pressure 30.06 in
Visibility 10.0 miles
Clouds Few 5500 ft
Scattered Clouds 15000 ft
Mostly Cloudy 25000 ft
Dew Point 62 °F
Humidity 89%
Rainfall 0.00 in
Snow Depth Not available.
7:00 AM 6:07 PM
Waxing Crescent, 42% visible
METAR KIAH 141453Z 17005KT 10SM FEW055 SCT150 BKN250 18/14 A3006 RMK AO2 SLP178 T01830139 58007
Pressure 30.06 in
Visibility 10.0 miles
Clouds Few 5500 ft
Scattered Clouds 15000 ft
Mostly Cloudy 25000 ft
Dew Point 62 °F
Humidity 89%
Rainfall 0.00 in
Snow Depth Not available.
7:00 AM 6:07 PM
Waxing Crescent, 42% visible
METAR KIAH 141453Z 17005KT 10SM FEW055 SCT150 BKN250 18/14 A3006 RMK AO2 SLP178 T01830139 58007

10-Day Weather Forecast

Almanac

Astronomy

Feb. 14, 2016 Rise Set
Actual Time
Civil Twilight
Nautical Twilight
Astronomical Twilight
Moon
Length of Visible Light
Length of Day
Tomorrow will be .
, % of the Moon is Illuminated

Today's Extremes

State Highs State Lows

Community

WunderPhotos

Upload Photos

1,892,791 photos uploaded!

WunderBlog® & News

Nearby

Air Quality

  Air Quality AQ Index Pollutant
Not available.

Snow Depth

Station Depth Elevation

Earthquake Activity

City Distance Mag. Time & Date
Minimum magnitude displayed is 2.5.

Coastal Water Temperatures

Place Temperature

Stations

Nearby Weather Stations

Station Location Temp. Windchill Dew Point Humidity Wind Precip. Elev Updated Type
                   

Watches & Warnings

There are currently no watches in effect.